Aeroporto :
LOGIN :

Iscrizione | Disclaimer

   EN    FR    IT 

 










Sommario :    VFR   VFR Marginale   IFR   IFR Intensivo   IFR Molto Intensivo
Visibilità : 
Base nubi : 
>= 8 km
>= 3000ft
5 / 8 km
1000 / 3000 ft
1500m / 5 km
500 / 1000 ft
800 / 1500m
200 / 500 ft
< 800m
< 200 ft
Simboli :   Temporali  Nebbia  Neve Forte  Precipitazioni Forti  Vento > 20 kt
SIGMETs :   Varie  Temporali  Ghiacco  Turbolenza  Onda orograficha  Ceneri Vulcaniche






- Altitudine del aeroporto : 2425 ft


ETHA - Altenstadt Army

ULTIMO METAR :
  • 122020Z AUTO 27004KT //// // ////// 01/01 Q1004 ///

METARs OBSOLETI :
  • 121920Z 24002KT 9999 BKN080 02/01 Q1005 BLU
  • 121820Z VRB01KT 9999 BKN090 02/01 Q1005 BLU

TAF TAF ETHA
Valido dal 12 a 15 ore il 13 a 00 ore UTC


121420Z 1215/1224 25005KT 9999 NSW SCT015 BKN070 BKN120
BECMG 1222/1224 21005KT 3000 SN SCT005 BKN010 OVC030 CANCEL 1520



MetMap, La meteo Aeronautica in un colpo d'occhio ! - Copyright ORBIFLY Dicembre 2007 - Disclaimer

ORBIFLY MET'MAP TEAM :

Programmazione e sviluppo : Alexandra Zaïnal
Concezione e sviluppo : Baudouin d'Aumeries
Co-Programmazione e sviluppo : Marc-Olivier Méhu
Supporto tecnico e logistico : Manuel Goepfert
Aiuto per la traduzione : Arnaldo La Scala

Contatto : metmap@orbifly.com




FONTI E CREDITI :

   NOAA